createdAt,value
2023-01-03T00:05:06.820Z,16.63
2023-01-03T00:11:17.790Z,10.32
2023-01-03T00:17:19.993Z,14.50
2023-01-03T00:23:21.844Z,13.73
2023-01-03T00:29:23.692Z,13.23
2023-01-03T00:35:25.456Z,12.82
2023-01-03T00:41:27.272Z,14.77
2023-01-03T00:47:29.029Z,11.23
2023-01-03T00:53:30.740Z,13.07
2023-01-03T00:59:32.516Z,13.50
2023-01-03T01:05:34.427Z,12.23
2023-01-03T01:11:36.222Z,18.23
2023-01-03T01:17:38.460Z,13.23
2023-01-03T01:23:41.477Z,16.70
2023-01-03T01:29:43.398Z,20.25
2023-01-03T01:35:45.268Z,16.98
2023-01-03T01:42:07.510Z,16.95
2023-01-03T01:48:13.293Z,21.25
2023-01-03T01:54:15.944Z,15.23
2023-01-03T02:00:18.176Z,20.00
2023-01-03T02:06:20.208Z,17.48
2023-01-03T02:12:49.331Z,20.08
2023-01-03T02:19:21.638Z,19.05
2023-01-03T02:25:35.765Z,17.55
2023-01-03T02:31:57.982Z,17.97
2023-01-03T02:38:35.826Z,19.35
2023-01-03T02:44:40.758Z,22.88
2023-01-03T02:50:52.154Z,20.95
2023-01-03T02:57:07.138Z,25.02
2023-01-03T03:03:14.342Z,25.25
2023-01-03T03:09:16.183Z,23.73
2023-01-03T03:15:23.003Z,30.15
2023-01-03T03:21:44.877Z,25.27
2023-01-03T03:28:07.380Z,20.88
2023-01-03T03:34:20.470Z,21.67
2023-01-03T03:40:43.982Z,23.33
2023-01-03T03:46:54.988Z,20.70
2023-01-03T03:53:05.072Z,22.65
2023-01-03T03:59:09.380Z,21.55
2023-01-03T04:05:13.215Z,24.60
2023-01-03T04:11:15.236Z,22.20
2023-01-03T04:17:17.229Z,26.00
2023-01-03T04:23:19.026Z,24.52
2023-01-03T04:29:20.737Z,24.98
2023-01-03T04:35:22.723Z,23.73
2023-01-03T04:41:24.521Z,21.15
2023-01-03T04:47:26.258Z,21.33
2023-01-03T04:53:28.110Z,21.20
2023-01-03T04:59:29.824Z,19.05
2023-01-03T05:05:31.588Z,21.88
2023-01-03T05:11:33.368Z,19.70
2023-01-03T05:17:35.118Z,18.70
2023-01-03T05:23:55.528Z,22.95
2023-01-03T05:29:57.701Z,24.95
2023-01-03T05:35:59.563Z,28.90
2023-01-03T05:42:01.364Z,31.02
2023-01-03T05:48:03.143Z,29.70
2023-01-03T05:54:05.140Z,32.75
2023-01-03T06:00:07.458Z,33.97
2023-01-03T06:06:11.946Z,33.30
2023-01-03T06:12:13.763Z,37.47
2023-01-03T06:18:15.491Z,40.35
2023-01-03T06:24:17.335Z,33.40
2023-01-03T06:30:19.237Z,39.25
2023-01-03T06:36:23.386Z,32.85
2023-01-03T06:42:40.281Z,36.03
2023-01-03T06:49:01.000Z,31.98
2023-01-03T06:55:03.226Z,33.65
2023-01-03T07:01:06.477Z,32.60
2023-01-03T07:07:08.327Z,31.63
2023-01-03T07:13:28.683Z,30.80
2023-01-03T07:19:30.436Z,32.20
2023-01-03T07:25:32.204Z,33.45
2023-01-03T07:31:34.283Z,34.90
2023-01-03T07:37:36.057Z,39.42
2023-01-03T07:43:40.248Z,37.20
2023-01-03T07:49:41.966Z,36.90
2023-01-03T07:55:45.465Z,37.05
2023-01-03T08:01:47.249Z,34.65
2023-01-03T08:07:50.607Z,37.90
2023-01-03T08:13:53.042Z,37.35
2023-01-03T08:19:54.793Z,39.28
2023-01-03T08:26:05.302Z,37.90
2023-01-03T08:32:07.284Z,35.63
2023-01-03T08:38:14.526Z,41.67
2023-01-03T08:44:16.438Z,34.35
2023-01-03T08:50:18.284Z,35.13
2023-01-03T08:56:21.170Z,36.15
2023-01-03T09:02:23.144Z,29.98
2023-01-03T09:08:25.023Z,33.83
2023-01-03T09:14:26.844Z,27.95
2023-01-03T09:20:28.568Z,26.70
2023-01-03T09:26:30.783Z,30.00
2023-01-03T09:32:32.533Z,26.92
2023-01-03T09:38:34.512Z,25.77
2023-01-03T09:44:37.680Z,27.73
2023-01-03T09:51:14.161Z,26.90
2023-01-03T09:57:28.156Z,24.48
2023-01-03T10:03:51.450Z,23.00
2023-01-03T10:09:59.921Z,23.73
2023-01-03T10:16:40.271Z,18.08
2023-01-03T10:22:42.229Z,19.83
2023-01-03T10:28:46.073Z,16.38
2023-01-03T10:35:04.585Z,19.27
2023-01-03T10:41:20.861Z,15.07
2023-01-03T10:47:25.554Z,15.57
2023-01-03T10:53:29.005Z,12.77
2023-01-03T10:59:32.294Z,12.10
2023-01-03T11:05:34.045Z,11.82
2023-01-03T11:11:40.083Z,12.00
2023-01-03T11:17:58.235Z,10.52
2023-01-03T11:24:13.114Z,12.45
2023-01-03T11:36:24.654Z,10.63
2023-01-03T11:42:50.534Z,7.32
2023-01-03T11:49:24.507Z,7.53
2023-01-03T11:55:56.686Z,9.65
2023-01-03T12:02:55.720Z,5.75
2023-01-03T12:09:11.169Z,7.82
2023-01-03T12:15:21.710Z,9.40
2023-01-03T12:21:33.233Z,9.77
2023-01-03T12:27:41.823Z,11.07
2023-01-03T12:33:50.629Z,5.95
2023-01-03T12:39:56.919Z,8.45
2023-01-03T12:46:21.245Z,5.88
2023-01-03T12:52:26.098Z,6.00
2023-01-03T12:58:42.807Z,4.80
2023-01-03T13:04:46.816Z,5.40
2023-01-03T13:10:50.945Z,6.60
2023-01-03T13:16:54.607Z,9.35
2023-01-03T13:23:03.111Z,7.87
2023-01-03T13:29:43.622Z,9.07
2023-01-03T13:35:45.385Z,5.10
2023-01-03T13:41:53.740Z,7.05
2023-01-03T13:47:56.368Z,7.82
2023-01-03T13:54:18.633Z,8.07
2023-01-03T14:00:22.897Z,6.60
2023-01-03T14:07:05.985Z,10.13
2023-01-03T14:13:41.650Z,7.18
2023-01-03T14:19:51.514Z,8.10
2023-01-03T14:25:54.466Z,7.00
2023-01-03T14:31:57.040Z,7.18
2023-01-03T14:38:04.697Z,5.63
2023-01-03T14:44:11.203Z,7.88
2023-01-03T14:50:26.561Z,7.72
2023-01-03T14:56:29.242Z,5.57
2023-01-03T15:02:37.146Z,7.47
2023-01-03T15:08:43.360Z,5.03
2023-01-03T15:14:45.126Z,8.05
2023-01-03T15:20:50.096Z,6.35
2023-01-03T15:26:53.815Z,5.57
2023-01-03T15:33:18.430Z,4.70
2023-01-03T15:39:25.932Z,6.72
2023-01-03T15:45:30.257Z,7.18
2023-01-03T15:51:31.982Z,7.38
2023-01-03T15:57:34.200Z,5.32
2023-01-03T16:03:36.089Z,7.68
2023-01-03T16:09:38.257Z,9.15
2023-01-03T16:15:43.616Z,6.13
2023-01-03T16:22:08.996Z,6.18
2023-01-03T16:28:12.237Z,7.43
2023-01-03T16:34:20.664Z,4.78
2023-01-03T16:40:22.458Z,5.28
2023-01-03T16:46:26.236Z,10.23
2023-01-03T16:52:37.785Z,6.60
2023-01-03T16:58:39.624Z,8.90
2023-01-03T17:04:41.885Z,8.63
2023-01-03T17:10:46.817Z,9.02
2023-01-03T17:16:49.766Z,5.80
2023-01-03T17:23:00.312Z,6.18
2023-01-03T17:29:04.942Z,6.50
2023-01-03T17:35:11.798Z,7.55
2023-01-03T17:41:18.526Z,6.85
2023-01-03T17:47:41.059Z,7.07
2023-01-03T17:53:44.212Z,8.38
2023-01-03T17:59:46.184Z,10.77
2023-01-03T18:05:47.983Z,5.40
2023-01-03T18:11:49.739Z,4.03
2023-01-03T18:17:52.456Z,6.88
2023-01-03T18:23:58.709Z,7.95
2023-01-03T18:30:00.433Z,6.30
2023-01-03T18:36:02.248Z,7.63
2023-01-03T18:42:23.081Z,4.78
2023-01-03T18:48:25.048Z,5.97
2023-01-03T18:54:26.951Z,8.60
2023-01-03T19:00:28.704Z,6.72
2023-01-03T19:06:31.584Z,10.43
2023-01-03T19:12:38.492Z,6.78
2023-01-03T19:18:40.327Z,9.73
2023-01-03T19:24:42.193Z,7.18
2023-01-03T19:30:46.472Z,6.43
2023-01-03T19:36:49.640Z,4.32
2023-01-03T19:42:54.617Z,4.65
2023-01-03T19:48:56.368Z,6.60
2023-01-03T19:54:58.151Z,6.95
2023-01-03T20:01:00.147Z,6.30
2023-01-03T20:07:01.869Z,6.40
2023-01-03T20:13:05.309Z,4.88
2023-01-03T20:19:15.249Z,6.68
2023-01-03T20:25:32.313Z,2.88
2023-01-03T20:31:34.146Z,4.93
2023-01-03T20:37:35.966Z,4.65
2023-01-03T20:43:37.923Z,10.65
2023-01-03T20:49:42.468Z,3.15
2023-01-03T20:55:44.375Z,4.82
2023-01-03T21:01:48.394Z,7.63
2023-01-03T21:08:08.938Z,3.55
2023-01-03T21:14:10.686Z,4.38
2023-01-03T21:20:21.551Z,7.82
2023-01-03T21:26:23.268Z,4.53
2023-01-03T21:32:25.030Z,9.38
2023-01-03T21:38:26.815Z,6.43
2023-01-03T21:44:29.946Z,3.13
2023-01-03T21:50:32.718Z,6.22
2023-01-03T21:56:37.607Z,6.25
2023-01-03T22:03:00.407Z,4.15
2023-01-03T22:09:04.439Z,5.18
2023-01-03T22:15:06.816Z,4.03
2023-01-03T22:21:11.209Z,3.72
2023-01-03T22:27:12.936Z,8.52
2023-01-03T22:33:14.638Z,5.55
2023-01-03T22:39:16.372Z,3.65
2023-01-03T22:45:18.140Z,6.68
2023-01-03T22:51:21.775Z,4.85
2023-01-03T22:57:23.520Z,4.80
2023-01-03T23:03:25.248Z,9.60
2023-01-03T23:09:27.002Z,4.47
2023-01-03T23:15:30.957Z,3.25
2023-01-03T23:21:33.891Z,3.27
2023-01-03T23:27:35.742Z,8.07
2023-01-03T23:33:37.652Z,2.85
2023-01-03T23:39:39.934Z,6.90
2023-01-03T23:45:41.709Z,8.85
2023-01-03T23:51:43.544Z,4.32
2023-01-03T23:57:45.331Z,6.10
